sensor_id;sensor_type;location;lat;lon;timestamp;pressure;altitude;pressure_sealevel;temperature
74750;BMP280;63269;53.330;-6.288;2023-03-12T00:02:14;100022.41;;;20.45
74750;BMP280;63269;53.330;-6.288;2023-03-12T00:04:40;100016.31;;;20.45
74750;BMP280;63269;53.330;-6.288;2023-03-12T00:07:05;100014.09;;;20.43
74750;BMP280;63269;53.330;-6.288;2023-03-12T00:09:37;100018.25;;;20.44
74750;BMP280;63269;53.330;-6.288;2023-03-12T00:12:03;100011.88;;;20.42
74750;BMP280;63269;53.330;-6.288;2023-03-12T00:14:29;99994.44;;;20.41
74750;BMP280;63269;53.330;-6.288;2023-03-12T00:16:54;99993.72;;;20.40
74750;BMP280;63269;53.330;-6.288;2023-03-12T00:19:20;99997.53;;;20.39
74750;BMP280;63269;53.330;-6.288;2023-03-12T00:21:45;99991.47;;;20.38
74750;BMP280;63269;53.330;-6.288;2023-03-12T00:24:11;99995.31;;;20.37
74750;BMP280;63269;53.330;-6.288;2023-03-12T00:26:36;99995.31;;;20.37
74750;BMP280;63269;53.330;-6.288;2023-03-12T00:29:02;99996.50;;;20.36
74750;BMP280;63269;53.330;-6.288;2023-03-12T00:31:30;99997.25;;;20.37
74750;BMP280;63269;53.330;-6.288;2023-03-12T00:33:58;100007.63;;;20.35
74750;BMP280;63269;53.330;-6.288;2023-03-12T00:36:25;100001.56;;;20.34
74750;BMP280;63269;53.330;-6.288;2023-03-12T00:38:52;100006.13;;;20.34
74750;BMP280;63269;53.330;-6.288;2023-03-12T00:41:18;100011.47;;;20.34
74750;BMP280;63269;53.330;-6.288;2023-03-12T00:43:50;100004.66;;;20.33
74750;BMP280;63269;53.330;-6.288;2023-03-12T00:46:16;100004.38;;;20.31
74750;BMP280;63269;53.330;-6.288;2023-03-12T00:48:41;100009.25;;;20.32
74750;BMP280;63269;53.330;-6.288;2023-03-12T00:51:07;100010.16;;;20.29
74750;BMP280;63269;53.330;-6.288;2023-03-12T00:53:33;100015.47;;;20.29
74750;BMP280;63269;53.330;-6.288;2023-03-12T00:55:59;100027.31;;;20.28
74750;BMP280;63269;53.330;-6.288;2023-03-12T00:58:24;100021.97;;;20.28
74750;BMP280;63269;53.330;-6.288;2023-03-12T01:00:50;100024.34;;;20.26
74750;BMP280;63269;53.330;-6.288;2023-03-12T01:03:15;100034.25;;;20.26
74750;BMP280;63269;53.330;-6.288;2023-03-12T01:05:41;100032.31;;;20.26
74750;BMP280;63269;53.330;-6.288;2023-03-12T01:08:08;100039.59;;;20.26
74750;BMP280;63269;53.330;-6.288;2023-03-12T01:10:35;100030.09;;;20.25
74750;BMP280;63269;53.330;-6.288;2023-03-12T01:13:01;100051.84;;;20.23
74750;BMP280;63269;53.330;-6.288;2023-03-12T01:15:26;100045.81;;;20.23
74750;BMP280;63269;53.330;-6.288;2023-03-12T01:17:52;100059.13;;;20.23
74750;BMP280;63269;53.330;-6.288;2023-03-12T01:20:17;100050.41;;;20.22
74750;BMP280;63269;53.330;-6.288;2023-03-12T01:22:43;100063.72;;;20.22
74750;BMP280;63269;53.330;-6.288;2023-03-12T01:25:09;100059.56;;;20.21
74750;BMP280;63269;53.330;-6.288;2023-03-12T01:27:35;100064.56;;;20.19
74750;BMP280;63269;53.330;-6.288;2023-03-12T01:30:01;100060.72;;;20.20
74750;BMP280;63269;53.330;-6.288;2023-03-12T01:32:26;100052.47;;;20.18
74750;BMP280;63269;53.330;-6.288;2023-03-12T01:34:51;100069.19;;;20.18
74750;BMP280;63269;53.330;-6.288;2023-03-12T01:37:17;100091.66;;;20.17
74750;BMP280;63269;53.330;-6.288;2023-03-12T01:39:42;100085.59;;;20.17
74750;BMP280;63269;53.330;-6.288;2023-03-12T01:42:08;100078.03;;;20.15
74750;BMP280;63269;53.330;-6.288;2023-03-12T01:44:58;100062.81;;;20.16
74750;BMP280;63269;53.330;-6.288;2023-03-12T01:47:23;100070.63;;;20.10
74750;BMP280;63269;53.330;-6.288;2023-03-12T01:49:51;100079.38;;;20.11
74750;BMP280;63269;53.330;-6.288;2023-03-12T01:52:24;100086.94;;;20.12
74750;BMP280;63269;53.330;-6.288;2023-03-12T01:55:15;100092.25;;;20.12
74750;BMP280;63269;53.330;-6.288;2023-03-12T01:57:51;100083.22;;;20.10
74750;BMP280;63269;53.330;-6.288;2023-03-12T02:00:21;100080.25;;;20.08
74750;BMP280;63269;53.330;-6.288;2023-03-12T02:02:47;100092.38;;;20.09
74750;BMP280;63269;53.330;-6.288;2023-03-12T02:05:28;100084.41;;;20.09
74750;BMP280;63269;53.330;-6.288;2023-03-12T02:07:55;100074.91;;;20.08
74750;BMP280;63269;53.330;-6.288;2023-03-12T02:10:22;100078.00;;;20.06
74750;BMP280;63269;53.330;-6.288;2023-03-12T02:12:47;100093.56;;;20.08
74750;BMP280;63269;53.330;-6.288;2023-03-12T02:15:13;100070.50;;;20.05
74750;BMP280;63269;53.330;-6.288;2023-03-12T02:17:38;100088.81;;;20.03
74750;BMP280;63269;53.330;-6.288;2023-03-12T02:22:46;100087.63;;;20.04
74750;BMP280;63269;53.330;-6.288;2023-03-12T02:25:35;100104.03;;;20.02
74750;BMP280;63269;53.330;-6.288;2023-03-12T02:28:04;100101.84;;;20.01
74750;BMP280;63269;53.330;-6.288;2023-03-12T02:30:31;100103.75;;;20.00
74750;BMP280;63269;53.330;-6.288;2023-03-12T02:32:58;100111.75;;;20.00
74750;BMP280;63269;53.330;-6.288;2023-03-12T02:35:25;100097.72;;;20.00
74750;BMP280;63269;53.330;-6.288;2023-03-12T02:37:54;100104.50;;;20.01
74750;BMP280;63269;53.330;-6.288;2023-03-12T02:40:44;100112.19;;;19.98
74750;BMP280;63269;53.330;-6.288;2023-03-12T02:43:10;100115.28;;;19.97
74750;BMP280;63269;53.330;-6.288;2023-03-12T02:45:37;100108.50;;;19.96
74750;BMP280;63269;53.330;-6.288;2023-03-12T02:48:05;100125.63;;;19.95
74750;BMP280;63269;53.330;-6.288;2023-03-12T02:50:32;100121.19;;;19.92
74750;BMP280;63269;53.330;-6.288;2023-03-12T02:52:57;100121.19;;;19.92
74750;BMP280;63269;53.330;-6.288;2023-03-12T02:55:23;100131.38;;;19.93
74750;BMP280;63269;53.330;-6.288;2023-03-12T02:57:48;100131.84;;;19.92
74750;BMP280;63269;53.330;-6.288;2023-03-12T03:00:14;100117.81;;;19.91
74750;BMP280;63269;53.330;-6.288;2023-03-12T03:02:40;100097.69;;;19.90
74750;BMP280;63269;53.330;-6.288;2023-03-12T03:05:07;100093.25;;;19.87
74750;BMP280;63269;53.330;-6.288;2023-03-12T03:07:33;100109.91;;;19.88
74750;BMP280;63269;53.330;-6.288;2023-03-12T03:09:58;100106.56;;;19.87
74750;BMP280;63269;53.330;-6.288;2023-03-12T03:12:35;100103.56;;;19.85
74750;BMP280;63269;53.330;-6.288;2023-03-12T03:15:00;100118.06;;;19.84
74750;BMP280;63269;53.330;-6.288;2023-03-12T03:17:26;100113.47;;;19.85
74750;BMP280;63269;53.330;-6.288;2023-03-12T03:19:52;100119.25;;;19.83
74750;BMP280;63269;53.330;-6.288;2023-03-12T03:22:19;100135.94;;;19.84
74750;BMP280;63269;53.330;-6.288;2023-03-12T03:24:45;100136.38;;;19.82
74750;BMP280;63269;53.330;-6.288;2023-03-12T03:27:12;100148.53;;;19.83
74750;BMP280;63269;53.330;-6.288;2023-03-12T03:29:37;100148.97;;;19.82
74750;BMP280;63269;53.330;-6.288;2023-03-12T03:32:03;100148.22;;;19.81
74750;BMP280;63269;53.330;-6.288;2023-03-12T03:34:29;100139.47;;;19.81
74750;BMP280;63269;53.330;-6.288;2023-03-12T03:36:54;100138.75;;;19.80
74750;BMP280;63269;53.330;-6.288;2023-03-12T03:39:20;100147.91;;;19.79
74750;BMP280;63269;53.330;-6.288;2023-03-12T03:41:45;100154.41;;;19.78
74750;BMP280;63269;53.330;-6.288;2023-03-12T03:44:12;100145.69;;;19.77
74750;BMP280;63269;53.330;-6.288;2023-03-12T03:46:38;100140.38;;;19.77
74750;BMP280;63269;53.330;-6.288;2023-03-12T03:49:04;100143.47;;;19.76
74750;BMP280;63269;53.330;-6.288;2023-03-12T03:51:29;100149.94;;;19.75
74750;BMP280;63269;53.330;-6.288;2023-03-12T03:53:54;100149.22;;;19.74
74750;BMP280;63269;53.330;-6.288;2023-03-12T03:56:20;100159.44;;;19.76
74750;BMP280;63269;53.330;-6.288;2023-03-12T03:58:45;100147.75;;;19.73
74750;BMP280;63269;53.330;-6.288;2023-03-12T04:01:12;100158.41;;;19.73
74750;BMP280;63269;53.330;-6.288;2023-03-12T04:03:38;100160.31;;;19.73
74750;BMP280;63269;53.330;-6.288;2023-03-12T04:06:05;100162.22;;;19.72
74750;BMP280;63269;53.330;-6.288;2023-03-12T04:08:31;100158.09;;;19.71
74750;BMP280;63269;53.330;-6.288;2023-03-12T04:11:08;100165.75;;;19.69
74750;BMP280;63269;53.330;-6.288;2023-03-12T04:13:34;100161.22;;;19.70
74750;BMP280;63269;53.330;-6.288;2023-03-12T04:15:59;100161.59;;;19.68
74750;BMP280;63269;53.330;-6.288;2023-03-12T04:18:24;100159.38;;;19.67
74750;BMP280;63269;53.330;-6.288;2023-03-12T04:20:50;100162.81;;;19.67
74750;BMP280;63269;53.330;-6.288;2023-03-12T04:23:15;100172.25;;;19.68
74750;BMP280;63269;53.330;-6.288;2023-03-12T04:25:41;100172.69;;;19.67
74750;BMP280;63269;53.330;-6.288;2023-03-12T04:28:07;100168.13;;;19.67
74750;BMP280;63269;53.330;-6.288;2023-03-12T04:30:33;100174.59;;;19.66
74750;BMP280;63269;53.330;-6.288;2023-03-12T04:32:58;100165.88;;;19.66
74750;BMP280;63269;53.330;-6.288;2023-03-12T04:35:24;100164.44;;;19.65
74750;BMP280;63269;53.330;-6.288;2023-03-12T04:37:50;100159.84;;;19.65
74750;BMP280;63269;53.330;-6.288;2023-03-12T04:40:15;100144.31;;;19.64
74750;BMP280;63269;53.330;-6.288;2023-03-12T04:42:43;100127.59;;;19.63
74750;BMP280;63269;53.330;-6.288;2023-03-12T04:45:09;100133.66;;;19.64
74750;BMP280;63269;53.330;-6.288;2023-03-12T04:47:35;100135.25;;;19.61
74750;BMP280;63269;53.330;-6.288;2023-03-12T04:50:00;100153.88;;;19.61
74750;BMP280;63269;53.330;-6.288;2023-03-12T04:52:25;100161.84;;;19.61
74750;BMP280;63269;53.330;-6.288;2023-03-12T04:54:52;100163.06;;;19.60
74750;BMP280;63269;53.330;-6.288;2023-03-12T04:57:18;100162.63;;;19.62
74750;BMP280;63269;53.330;-6.288;2023-03-12T04:59:43;100155.09;;;19.60
74750;BMP280;63269;53.330;-6.288;2023-03-12T05:02:09;100155.53;;;19.59
74750;BMP280;63269;53.330;-6.288;2023-03-12T05:04:34;100166.16;;;19.59
74750;BMP280;63269;53.330;-6.288;2023-03-12T05:07:00;100166.16;;;19.59
74750;BMP280;63269;53.330;-6.288;2023-03-12T05:09:25;100164.25;;;19.59
74750;BMP280;63269;53.330;-6.288;2023-03-12T05:11:50;100160.84;;;19.59
74750;BMP280;63269;53.330;-6.288;2023-03-12T05:14:16;100158.31;;;19.55
74750;BMP280;63269;53.330;-6.288;2023-03-12T05:16:41;100151.84;;;19.56
74750;BMP280;63269;53.330;-6.288;2023-03-12T05:19:07;100155.66;;;19.55
74750;BMP280;63269;53.330;-6.288;2023-03-12T05:21:32;100159.81;;;19.56
74750;BMP280;63269;53.330;-6.288;2023-03-12T05:23:58;100160.97;;;19.55
74750;BMP280;63269;53.330;-6.288;2023-03-12T05:26:27;100181.53;;;19.54
74750;BMP280;63269;53.330;-6.288;2023-03-12T05:28:53;100188.44;;;19.52
74750;BMP280;63269;53.330;-6.288;2023-03-12T05:31:18;100182.41;;;19.51
74750;BMP280;63269;53.330;-6.288;2023-03-12T05:33:44;100178.53;;;19.52
74750;BMP280;63269;53.330;-6.288;2023-03-12T05:36:10;100168.34;;;19.51
74750;BMP280;63269;53.330;-6.288;2023-03-12T05:38:37;100180.91;;;19.50
74750;BMP280;63269;53.330;-6.288;2023-03-12T05:41:02;100179.75;;;19.51
74750;BMP280;63269;53.330;-6.288;2023-03-12T05:43:28;100183.09;;;19.52
74750;BMP280;63269;53.330;-6.288;2023-03-12T05:46:01;100183.41;;;19.54
74750;BMP280;63269;53.330;-6.288;2023-03-12T05:48:27;100172.34;;;19.55
74750;BMP280;63269;53.330;-6.288;2023-03-12T05:50:52;100168.84;;;19.59
74750;BMP280;63269;53.330;-6.288;2023-03-12T05:53:17;100168.69;;;19.62
74750;BMP280;63269;53.330;-6.288;2023-03-12T05:55:43;100169.75;;;19.65
74750;BMP280;63269;53.330;-6.288;2023-03-12T05:58:08;100158.94;;;19.68
74750;BMP280;63269;53.330;-6.288;2023-03-12T06:00:35;100153.06;;;19.73
74750;BMP280;63269;53.330;-6.288;2023-03-12T06:03:06;100142.31;;;19.77
74750;BMP280;63269;53.330;-6.288;2023-03-12T06:05:34;100141.41;;;19.80
74750;BMP280;63269;53.330;-6.288;2023-03-12T06:08:00;100136.38;;;19.82
74750;BMP280;63269;53.330;-6.288;2023-03-12T06:10:26;100142.75;;;19.85
74750;BMP280;63269;53.330;-6.288;2023-03-12T06:12:51;100146.47;;;19.87
74750;BMP280;63269;53.330;-6.288;2023-03-12T06:15:17;100159.63;;;19.91
74750;BMP280;63269;53.330;-6.288;2023-03-12T06:17:42;100149.28;;;19.93
74750;BMP280;63269;53.330;-6.288;2023-03-12T06:20:08;100154.16;;;19.94
74750;BMP280;63269;53.330;-6.288;2023-03-12T06:22:34;100162.47;;;19.96
74750;BMP280;63269;53.330;-6.288;2023-03-12T06:25:00;100173.41;;;19.98
74750;BMP280;63269;53.330;-6.288;2023-03-12T06:27:25;100167.66;;;20.00
74750;BMP280;63269;53.330;-6.288;2023-03-12T06:29:51;100169.84;;;20.02
74750;BMP280;63269;53.330;-6.288;2023-03-12T06:32:17;100167.09;;;20.05
74750;BMP280;63269;53.330;-6.288;2023-03-12T06:34:43;100165.88;;;20.06
74750;BMP280;63269;53.330;-6.288;2023-03-12T06:37:09;100162.78;;;20.08
74750;BMP280;63269;53.330;-6.288;2023-03-12T06:39:34;100173.72;;;20.10
74750;BMP280;63269;53.330;-6.288;2023-03-12T06:42:00;100176.69;;;20.12
74750;BMP280;63269;53.330;-6.288;2023-03-12T06:44:25;100175.53;;;20.13
74750;BMP280;63269;53.330;-6.288;2023-03-12T06:46:51;100169.31;;;20.16
74750;BMP280;63269;53.330;-6.288;2023-03-12T06:49:16;100170.06;;;20.16
74750;BMP280;63269;53.330;-6.288;2023-03-12T06:51:42;100182.47;;;20.20
74750;BMP280;63269;53.330;-6.288;2023-03-12T06:54:07;100177.16;;;20.20
74750;BMP280;63269;53.330;-6.288;2023-03-12T06:56:33;100175.56;;;20.22
74750;BMP280;63269;53.330;-6.288;2023-03-12T06:58:58;100166.81;;;20.22
74750;BMP280;63269;53.330;-6.288;2023-03-12T07:01:24;100161.78;;;20.24
74750;BMP280;63269;53.330;-6.288;2023-03-12T07:03:49;100166.69;;;20.25
74750;BMP280;63269;53.330;-6.288;2023-03-12T07:06:17;100168.91;;;20.27
74750;BMP280;63269;53.330;-6.288;2023-03-12T07:08:43;100147.13;;;20.28
74750;BMP280;63269;53.330;-6.288;2023-03-12T07:11:09;100152.03;;;20.30
74750;BMP280;63269;53.330;-6.288;2023-03-12T07:13:35;100156.91;;;20.31
74750;BMP280;63269;53.330;-6.288;2023-03-12T07:16:01;100159.88;;;20.33
74750;BMP280;63269;53.330;-6.288;2023-03-12T07:18:28;100155.28;;;20.34
74750;BMP280;63269;53.330;-6.288;2023-03-12T07:20:54;100154.84;;;20.35
74750;BMP280;63269;53.330;-6.288;2023-03-12T07:23:20;100153.66;;;20.36
74750;BMP280;63269;53.330;-6.288;2023-03-12T07:25:45;100146.41;;;20.37
74750;BMP280;63269;53.330;-6.288;2023-03-12T07:28:12;100153.22;;;20.38
74750;BMP280;63269;53.330;-6.288;2023-03-12T07:30:39;100156.63;;;20.38
74750;BMP280;63269;53.330;-6.288;2023-03-12T07:33:07;100150.84;;;20.40
74750;BMP280;63269;53.330;-6.288;2023-03-12T07:35:34;100158.84;;;20.40
74750;BMP280;63269;53.330;-6.288;2023-03-12T07:38:00;100149.97;;;20.43
74750;BMP280;63269;53.330;-6.288;2023-03-12T07:40:26;100158.72;;;20.44
74750;BMP280;63269;53.330;-6.288;2023-03-12T07:42:52;100162.09;;;20.44
74750;BMP280;63269;53.330;-6.288;2023-03-12T07:45:18;100147.28;;;20.43
74750;BMP280;63269;53.330;-6.288;2023-03-12T07:47:44;100156.31;;;20.46
74750;BMP280;63269;53.330;-6.288;2023-03-12T07:50:11;100161.97;;;20.48
74750;BMP280;63269;53.330;-6.288;2023-03-12T07:52:36;100153.50;;;20.49
74750;BMP280;63269;53.330;-6.288;2023-03-12T07:55:02;100150.84;;;20.49
74750;BMP280;63269;53.330;-6.288;2023-03-12T07:57:27;100154.97;;;20.50
74750;BMP280;63269;53.330;-6.288;2023-03-12T07:59:53;100154.25;;;20.50
74750;BMP280;63269;53.330;-6.288;2023-03-12T08:02:18;100157.25;;;20.52
74750;BMP280;63269;53.330;-6.288;2023-03-12T08:04:44;100142.00;;;20.52
74750;BMP280;63269;53.330;-6.288;2023-03-12T08:07:10;100154.09;;;20.53
74750;BMP280;63269;53.330;-6.288;2023-03-12T08:09:37;100159.00;;;20.55
74750;BMP280;63269;53.330;-6.288;2023-03-12T08:12:03;100154.41;;;20.55
74750;BMP280;63269;53.330;-6.288;2023-03-12T08:14:28;100142.56;;;20.56
74750;BMP280;63269;53.330;-6.288;2023-03-12T08:16:58;100160.03;;;20.57
74750;BMP280;63269;53.330;-6.288;2023-03-12T08:19:24;100150.84;;;20.58
74750;BMP280;63269;53.330;-6.288;2023-03-12T08:21:51;100151.59;;;20.59
74750;BMP280;63269;53.330;-6.288;2023-03-12T08:24:18;100156.50;;;20.61
74750;BMP280;63269;53.330;-6.288;2023-03-12T08:26:44;100146.56;;;20.61
74750;BMP280;63269;53.330;-6.288;2023-03-12T08:29:10;100160.63;;;20.62
74750;BMP280;63269;53.330;-6.288;2023-03-12T08:31:35;100161.34;;;20.62
74750;BMP280;63269;53.330;-6.288;2023-03-12T08:34:01;100170.41;;;20.65
74750;BMP280;63269;53.330;-6.288;2023-03-12T08:36:27;100162.41;;;20.65
74750;BMP280;63269;53.330;-6.288;2023-03-12T08:38:53;100166.56;;;20.66
74750;BMP280;63269;53.330;-6.288;2023-03-12T08:41:18;100169.94;;;20.66
74750;BMP280;63269;53.330;-6.288;2023-03-12T08:43:44;100160.03;;;20.67
74750;BMP280;63269;53.330;-6.288;2023-03-12T08:46:09;100150.09;;;20.67
74750;BMP280;63269;53.330;-6.288;2023-03-12T08:48:34;100148.94;;;20.68
74750;BMP280;63269;53.330;-6.288;2023-03-12T08:51:01;100137.09;;;20.69
74750;BMP280;63269;53.330;-6.288;2023-03-12T08:53:29;100115.78;;;20.69
74750;BMP280;63269;53.330;-6.288;2023-03-12T08:55:55;100123.31;;;20.71
74750;BMP280;63269;53.330;-6.288;2023-03-12T08:58:21;100101.53;;;20.72
74750;BMP280;63269;53.330;-6.288;2023-03-12T09:00:47;100096.22;;;20.72
74750;BMP280;63269;53.330;-6.288;2023-03-12T09:03:13;100083.63;;;20.73
74750;BMP280;63269;53.330;-6.288;2023-03-12T09:05:40;100070.59;;;20.75
74750;BMP280;63269;53.330;-6.288;2023-03-12T09:08:06;100067.94;;;20.75
74750;BMP280;63269;53.330;-6.288;2023-03-12T09:10:32;100058.75;;;20.76
74750;BMP280;63269;53.330;-6.288;2023-03-12T09:12:58;100046.91;;;20.77
74750;BMP280;63269;53.330;-6.288;2023-03-12T09:15:23;100047.66;;;20.77
74750;BMP280;63269;53.330;-6.288;2023-03-12T09:17:48;100052.22;;;20.77
74750;BMP280;63269;53.330;-6.288;2023-03-12T09:20:14;100049.84;;;20.79
74750;BMP280;63269;53.330;-6.288;2023-03-12T09:22:42;100049.84;;;20.79
74750;BMP280;63269;53.330;-6.288;2023-03-12T09:25:09;100045.00;;;20.77
74750;BMP280;63269;53.330;-6.288;2023-03-12T09:27:39;100061.00;;;20.77
74750;BMP280;63269;53.330;-6.288;2023-03-12T09:30:07;100058.75;;;20.76
74750;BMP280;63269;53.330;-6.288;2023-03-12T09:32:33;100055.81;;;20.74
74750;BMP280;63269;53.330;-6.288;2023-03-12T09:34:58;100056.69;;;20.71
74750;BMP280;63269;53.330;-6.288;2023-03-12T09:37:24;100062.75;;;20.71
74750;BMP280;63269;53.330;-6.288;2023-03-12T09:39:50;100057.88;;;20.70
74750;BMP280;63269;53.330;-6.288;2023-03-12T09:42:24;100049.16;;;20.69
74750;BMP280;63269;53.330;-6.288;2023-03-12T09:44:52;100041.31;;;20.66
74750;BMP280;63269;53.330;-6.288;2023-03-12T09:49:50;100039.53;;;20.63
74750;BMP280;63269;53.330;-6.288;2023-03-12T09:53:01;100033.16;;;20.60
74750;BMP280;63269;53.330;-6.288;2023-03-12T09:55:34;100026.81;;;20.57
74750;BMP280;63269;53.330;-6.288;2023-03-12T09:58:00;100015.56;;;20.53
74750;BMP280;63269;53.330;-6.288;2023-03-12T10:00:30;100003.72;;;20.54
74750;BMP280;63269;53.330;-6.288;2023-03-12T10:03:34;99976.09;;;20.52
74750;BMP280;63269;53.330;-6.288;2023-03-12T10:06:19;99976.50;;;20.50
74750;BMP280;63269;53.330;-6.288;2023-03-12T10:15:01;99956.72;;;20.42
74750;BMP280;63269;53.330;-6.288;2023-03-12T10:23:24;99957.75;;;20.35
74750;BMP280;63269;53.330;-6.288;2023-03-12T10:25:59;99960.13;;;20.33
74750;BMP280;63269;53.330;-6.288;2023-03-12T10:28:35;99945.31;;;20.32
74750;BMP280;63269;53.330;-6.288;2023-03-12T10:31:05;99956.88;;;20.29
74750;BMP280;63269;53.330;-6.288;2023-03-12T10:33:42;99956.13;;;20.29
74750;BMP280;63269;53.330;-6.288;2023-03-12T10:36:15;99951.72;;;20.26
74750;BMP280;63269;53.330;-6.288;2023-03-12T10:38:41;99959.41;;;20.24
74750;BMP280;63269;53.330;-6.288;2023-03-12T10:41:19;99961.63;;;20.25
74750;BMP280;63269;53.330;-6.288;2023-03-12T10:43:45;99963.97;;;20.23
74750;BMP280;63269;53.330;-6.288;2023-03-12T10:48:39;99958.66;;;20.23
74750;BMP280;63269;53.330;-6.288;2023-03-12T10:51:11;99960.59;;;20.23
74750;BMP280;63269;53.330;-6.288;2023-03-12T10:53:38;99953.06;;;20.21
74750;BMP280;63269;53.330;-6.288;2023-03-12T10:56:08;99950.41;;;20.21
74750;BMP280;63269;53.330;-6.288;2023-03-12T10:58:35;99949.38;;;20.18
74750;BMP280;63269;53.330;-6.288;2023-03-12T11:01:03;99956.88;;;20.20
74750;BMP280;63269;53.330;-6.288;2023-03-12T11:03:30;99945.22;;;20.17
74750;BMP280;63269;53.330;-6.288;2023-03-12T11:05:59;99939.41;;;20.19
74750;BMP280;63269;53.330;-6.288;2023-03-12T11:08:35;99932.66;;;20.18
74750;BMP280;63269;53.330;-6.288;2023-03-12T11:11:02;99931.91;;;20.17
74750;BMP280;63269;53.330;-6.288;2023-03-12T11:13:31;99913.25;;;20.17
74750;BMP280;63269;53.330;-6.288;2023-03-12T11:16:00;99919.03;;;20.16
74750;BMP280;63269;53.330;-6.288;2023-03-12T11:23:28;99913.44;;;20.14
74750;BMP280;63269;53.330;-6.288;2023-03-12T11:26:00;99912.69;;;20.13
74750;BMP280;63269;53.330;-6.288;2023-03-12T11:28:39;99914.59;;;20.13
74750;BMP280;63269;53.330;-6.288;2023-03-12T11:31:18;99902.91;;;20.10
74750;BMP280;63269;53.330;-6.288;2023-03-12T11:33:44;99899.50;;;20.10
74750;BMP280;63269;53.330;-6.288;2023-03-12T11:36:50;99897.31;;;20.08
74750;BMP280;63269;53.330;-6.288;2023-03-12T11:41:54;99882.06;;;20.09
74750;BMP280;63269;53.330;-6.288;2023-03-12T11:44:57;99888.88;;;20.10
74750;BMP280;63269;53.330;-6.288;2023-03-12T12:01:35;99885.75;;;20.11
74750;BMP280;63269;53.330;-6.288;2023-03-12T12:09:43;99864.03;;;20.13
74750;BMP280;63269;53.330;-6.288;2023-03-12T12:12:23;99865.19;;;20.12
74750;BMP280;63269;53.330;-6.288;2023-03-12T12:17:39;99852.22;;;20.14
74750;BMP280;63269;53.330;-6.288;2023-03-12T12:26:09;99825.69;;;20.20
74750;BMP280;63269;53.330;-6.288;2023-03-12T12:31:18;99815.19;;;20.25
74750;BMP280;63269;53.330;-6.288;2023-03-12T12:36:33;99800.56;;;20.45
74750;BMP280;63269;53.330;-6.288;2023-03-12T12:41:37;99781.66;;;20.67
74750;BMP280;63269;53.330;-6.288;2023-03-12T12:44:11;99790.06;;;20.74
74750;BMP280;63269;53.330;-6.288;2023-03-12T12:46:41;99773.63;;;20.76
74750;BMP280;63269;53.330;-6.288;2023-03-12T12:49:20;99762.50;;;20.77
74750;BMP280;63269;53.330;-6.288;2023-03-12T12:51:59;99775.06;;;20.77
74750;BMP280;63269;53.330;-6.288;2023-03-12T12:57:41;99750.81;;;20.75
74750;BMP280;63269;53.330;-6.288;2023-03-12T13:02:50;99755.56;;;20.71
74750;BMP280;63269;53.330;-6.288;2023-03-12T13:05:44;99743.47;;;20.70
74750;BMP280;63269;53.330;-6.288;2023-03-12T13:11:37;99734.91;;;20.66
74750;BMP280;63269;53.330;-6.288;2023-03-12T13:16:41;99717.16;;;20.63
74750;BMP280;63269;53.330;-6.288;2023-03-12T13:24:30;99705.47;;;20.60
74750;BMP280;63269;53.330;-6.288;2023-03-12T13:27:17;99698.69;;;20.59
74750;BMP280;63269;53.330;-6.288;2023-03-12T13:29:43;99684.34;;;20.56
74750;BMP280;63269;53.330;-6.288;2023-03-12T13:40:51;99668.25;;;20.51
74750;BMP280;63269;53.330;-6.288;2023-03-12T13:43:50;99657.03;;;20.47
74750;BMP280;63269;53.330;-6.288;2023-03-12T13:48:45;99675.38;;;20.45
74750;BMP280;63269;53.330;-6.288;2023-03-12T13:51:17;99642.44;;;20.42
74750;BMP280;63269;53.330;-6.288;2023-03-12T13:53:47;99640.94;;;20.41
74750;BMP280;63269;53.330;-6.288;2023-03-12T13:56:16;99649.41;;;20.40
74750;BMP280;63269;53.330;-6.288;2023-03-12T14:01:14;99627.53;;;20.35
74750;BMP280;63269;53.330;-6.288;2023-03-12T14:03:47;99624.88;;;20.35
74750;BMP280;63269;53.330;-6.288;2023-03-12T14:06:19;99621.50;;;20.35
74750;BMP280;63269;53.330;-6.288;2023-03-12T14:09:21;99621.94;;;20.33
74750;BMP280;63269;53.330;-6.288;2023-03-12T14:12:08;99604.63;;;20.29
74750;BMP280;63269;53.330;-6.288;2023-03-12T14:14:55;99601.97;;;20.29
74750;BMP280;63269;53.330;-6.288;2023-03-12T14:17:26;99587.22;;;20.28
74750;BMP280;63269;53.330;-6.288;2023-03-12T14:22:59;99572.88;;;20.25
74750;BMP280;63269;53.330;-6.288;2023-03-12T14:25:42;99570.22;;;20.25
74750;BMP280;63269;53.330;-6.288;2023-03-12T14:28:14;99567.56;;;20.25
74750;BMP280;63269;53.330;-6.288;2023-03-12T14:33:17;99540.63;;;20.23
74750;BMP280;63269;53.330;-6.288;2023-03-12T14:35:50;99542.59;;;20.23
74750;BMP280;63269;53.330;-6.288;2023-03-12T14:38:33;99540.38;;;20.21
74750;BMP280;63269;53.330;-6.288;2023-03-12T14:41:05;99533.56;;;20.20
74750;BMP280;63269;53.330;-6.288;2023-03-12T14:43:51;99530.91;;;20.20
74750;BMP280;63269;53.330;-6.288;2023-03-12T14:46:32;99539.38;;;20.18
74750;BMP280;63269;53.330;-6.288;2023-03-12T14:49:21;99530.66;;;20.18
74750;BMP280;63269;53.330;-6.288;2023-03-12T14:51:49;99532.56;;;20.17
74750;BMP280;63269;53.330;-6.288;2023-03-12T14:54:17;99526.19;;;20.15
74750;BMP280;63269;53.330;-6.288;2023-03-12T14:56:44;99526.97;;;20.15
74750;BMP280;63269;53.330;-6.288;2023-03-12T14:59:23;99512.34;;;20.11
74750;BMP280;63269;53.330;-6.288;2023-03-12T15:01:50;99511.91;;;20.12
74750;BMP280;63269;53.330;-6.288;2023-03-12T15:04:21;99505.81;;;20.12
74750;BMP280;63269;53.330;-6.288;2023-03-12T15:06:56;99488.41;;;20.11
74750;BMP280;63269;53.330;-6.288;2023-03-12T15:09:27;99483.06;;;20.11
74750;BMP280;63269;53.330;-6.288;2023-03-12T15:11:56;99472.44;;;20.11
74750;BMP280;63269;53.330;-6.288;2023-03-12T15:14:23;99472.16;;;20.09
74750;BMP280;63269;53.330;-6.288;2023-03-12T15:16:50;99457.34;;;20.08
74750;BMP280;63269;53.330;-6.288;2023-03-12T15:19:20;99459.28;;;20.07
74750;BMP280;63269;53.330;-6.288;2023-03-12T15:21:47;99439.47;;;20.08
74750;BMP280;63269;53.330;-6.288;2023-03-12T15:24:13;99438.16;;;20.04
74750;BMP280;63269;53.330;-6.288;2023-03-12T15:26:39;99425.88;;;20.06
74750;BMP280;63269;53.330;-6.288;2023-03-12T15:29:20;99436.50;;;20.06
74750;BMP280;63269;53.330;-6.288;2023-03-12T15:31:52;99417.63;;;20.04
74750;BMP280;63269;53.330;-6.288;2023-03-12T15:34:45;99416.88;;;20.04
74750;BMP280;63269;53.330;-6.288;2023-03-12T15:37:31;99408.91;;;20.04
74750;BMP280;63269;53.330;-6.288;2023-03-12T15:40:02;99399.91;;;20.01